createdAt,value
2018-07-10T00:01:45.123Z,101615.92
2018-07-10T00:04:25.529Z,101616.57
2018-07-10T00:07:06.693Z,101621.13
2018-07-10T00:10:16.327Z,101630.11
2018-07-10T00:12:45.566Z,101627.41
2018-07-10T00:15:14.534Z,101623.84
2018-07-10T00:17:43.322Z,101629.13
2018-07-10T00:20:12.292Z,101629.13
2018-07-10T00:22:41.545Z,101623.56
2018-07-10T00:25:10.475Z,101623.06
2018-07-10T00:27:39.323Z,101625.63
2018-07-10T00:30:08.360Z,101626.14
2018-07-10T00:32:37.665Z,101631.91
2018-07-10T00:35:06.824Z,101635.51
2018-07-10T00:37:35.854Z,101638.67
2018-07-10T00:40:05.047Z,101636.86
2018-07-10T00:42:34.124Z,101637.73
2018-07-10T00:45:03.207Z,101627.22
2018-07-10T00:47:32.391Z,101630.45
2018-07-10T00:50:01.809Z,101632.64
2018-07-10T00:52:34.132Z,101629.59
2018-07-10T00:55:03.497Z,101635.88
2018-07-10T00:57:33.649Z,101640.77
2018-07-10T01:00:03.367Z,101647.05
2018-07-10T01:02:32.739Z,101648.07
2018-07-10T01:05:01.893Z,101650.25
2018-07-10T01:07:30.985Z,101647.55
2018-07-10T01:10:00.410Z,101652.97
2018-07-10T01:12:29.532Z,101650.25
2018-07-10T01:14:58.474Z,101651.61
2018-07-10T01:17:27.698Z,101646.19
2018-07-10T01:19:56.877Z,101647.05
2018-07-10T01:22:26.103Z,101642.66
2018-07-10T01:24:55.648Z,101643.64
2018-07-10T01:27:24.945Z,101649.06
2018-07-10T01:29:54.007Z,101645.45
2018-07-10T01:32:23.013Z,101647.83
2018-07-10T01:34:52.015Z,101642.89
2018-07-10T01:37:21.079Z,101649.18
2018-07-10T01:39:50.076Z,101643.39
2018-07-10T01:42:19.318Z,101648.44
2018-07-10T01:44:48.411Z,101652.88
2018-07-10T01:47:17.591Z,101645.39
2018-07-10T01:49:46.686Z,101653.02
2018-07-10T01:52:15.759Z,101647.23
2018-07-10T01:54:44.810Z,101652.16
2018-07-10T01:57:13.842Z,101657.21
2018-07-10T01:59:42.966Z,101657.36
2018-07-10T02:02:11.945Z,101660.08
2018-07-10T02:04:40.973Z,101656.13
2018-07-10T02:07:09.910Z,101661.55
2018-07-10T02:09:38.927Z,101660.56
2018-07-10T02:12:07.804Z,101657.98
2018-07-10T02:14:36.604Z,101656.28
2018-07-10T02:17:05.642Z,101664.41
2018-07-10T02:19:34.673Z,101660.84
2018-07-10T02:22:03.985Z,101662.35
2018-07-10T02:24:33.199Z,101668.59
2018-07-10T02:27:02.258Z,101665.06
2018-07-10T02:29:31.192Z,101666.91
2018-07-10T02:32:00.185Z,101666.91
2018-07-10T02:34:29.028Z,101666.91
2018-07-10T02:36:58.061Z,101658.28
2018-07-10T02:39:27.073Z,101670.81
2018-07-10T02:41:56.250Z,101672.55
2018-07-10T02:44:25.712Z,101670.17
2018-07-10T02:46:54.998Z,101672.27
2018-07-10T02:49:24.217Z,101670.42
2018-07-10T02:52:01.310Z,101678.39
2018-07-10T02:54:33.302Z,101677.41
2018-07-10T02:57:03.315Z,101675.91
2018-07-10T02:59:38.777Z,101675.41
2018-07-10T03:02:12.868Z,101676.16
2018-07-10T03:04:42.606Z,101679.23
2018-07-10T03:07:15.147Z,101668.89
2018-07-10T03:09:45.165Z,101675.02
2018-07-10T03:12:14.338Z,101682.66
2018-07-10T03:14:44.908Z,101681.14
2018-07-10T03:17:18.104Z,101684.72
2018-07-10T03:19:47.566Z,101686.45
2018-07-10T03:22:16.761Z,101688.02
2018-07-10T03:24:46.159Z,101693.28
2018-07-10T03:27:15.293Z,101687.73
2018-07-10T03:29:44.468Z,101685.73
2018-07-10T03:32:13.462Z,101686.45
2018-07-10T03:34:42.635Z,101683.95
2018-07-10T03:37:11.830Z,101685.16
2018-07-10T03:39:41.972Z,101691.31
2018-07-10T03:42:12.182Z,101690.67
2018-07-10T03:44:44.403Z,101702.59
2018-07-10T03:47:15.902Z,101696.15
2018-07-10T03:49:45.787Z,101693.66
2018-07-10T03:52:19.634Z,101696.24
2018-07-10T03:54:48.838Z,101689.68
2018-07-10T03:57:18.058Z,101692.61
2018-07-10T03:59:50.067Z,101691.62
2018-07-10T04:02:19.197Z,101694.02
2018-07-10T04:04:48.615Z,101697.96
2018-07-10T04:07:18.164Z,101692.88
2018-07-10T04:09:47.506Z,101691.73
2018-07-10T04:12:16.451Z,101693.83
2018-07-10T04:14:45.812Z,101698.23
2018-07-10T04:17:15.109Z,101701.65
2018-07-10T04:19:44.956Z,101702.88
2018-07-10T04:22:17.371Z,101703.59
2018-07-10T04:24:46.998Z,101704.30
2018-07-10T04:27:27.676Z,101700.10
2018-07-10T04:30:04.381Z,101704.02
2018-07-10T04:32:36.089Z,101702.20
2018-07-10T04:35:05.281Z,101705.61
2018-07-10T04:37:35.443Z,101707.34
2018-07-10T04:40:04.970Z,101707.19
2018-07-10T04:42:38.959Z,101709.24
2018-07-10T04:45:13.401Z,101705.05
2018-07-10T04:47:46.453Z,101711.19
2018-07-10T04:50:20.868Z,101716.81
2018-07-10T04:52:54.716Z,101707.69
2018-07-10T04:55:23.666Z,101711.11
2018-07-10T04:58:27.479Z,101714.53
2018-07-10T05:00:58.445Z,101722.88
2018-07-10T05:03:28.942Z,101723.24
2018-07-10T05:06:00.192Z,101716.67
2018-07-10T05:08:29.038Z,101725.52
2018-07-10T05:10:58.206Z,101714.53
2018-07-10T05:13:27.825Z,101714.75
2018-07-10T05:15:58.713Z,101719.03
2018-07-10T05:18:27.954Z,101717.35
2018-07-10T05:20:57.014Z,101715.88
2018-07-10T05:23:27.379Z,101723.72
2018-07-10T05:25:57.147Z,101726.65
2018-07-10T05:28:26.994Z,101718.71
2018-07-10T05:30:59.701Z,101720.07
2018-07-10T05:33:28.948Z,101717.90
2018-07-10T05:35:58.199Z,101714.56
2018-07-10T05:39:33.618Z,101716.95
2018-07-10T05:42:02.782Z,101719.17
2018-07-10T05:44:32.301Z,101719.55
2018-07-10T05:47:03.800Z,101722.47
2018-07-10T05:49:37.485Z,101726.78
2018-07-10T05:52:06.549Z,101725.63
2018-07-10T05:54:37.640Z,101724.97
2018-07-10T05:57:07.260Z,101725.18
2018-07-10T05:59:36.269Z,101725.75
2018-07-10T06:02:05.273Z,101720.69
2018-07-10T06:04:34.311Z,101726.81
2018-07-10T06:07:04.283Z,101720.73
2018-07-10T06:09:33.396Z,101725.50
2018-07-10T06:12:02.853Z,101728.09
2018-07-10T06:14:32.143Z,101735.91
2018-07-10T06:17:01.308Z,101731.22
2018-07-10T06:19:30.395Z,101737.34
2018-07-10T06:21:59.515Z,101734.47
2018-07-10T06:24:29.643Z,101740.97
2018-07-10T06:27:06.868Z,101743.55
2018-07-10T06:29:45.963Z,101755.62
2018-07-10T06:32:18.639Z,101754.95
2018-07-10T06:34:47.873Z,101756.69
2018-07-10T06:37:23.096Z,101754.30
2018-07-10T06:39:52.105Z,101756.02
2018-07-10T06:42:25.644Z,101755.89
2018-07-10T06:44:54.819Z,101753.88
2018-07-10T06:47:27.938Z,101753.38
2018-07-10T06:49:57.345Z,101756.30
2018-07-10T06:52:26.618Z,101752.56
2018-07-10T06:55:04.765Z,101757.00
2018-07-10T06:57:35.393Z,101747.33
2018-07-10T07:00:07.075Z,101747.20
2018-07-10T07:02:37.331Z,101751.27
2018-07-10T07:05:06.606Z,101748.03
2018-07-10T07:07:36.844Z,101757.41
2018-07-10T07:10:06.984Z,101751.11
2018-07-10T07:12:36.429Z,101758.27
2018-07-10T07:15:07.676Z,101766.63
2018-07-10T07:17:37.369Z,101766.63
2018-07-10T07:20:07.264Z,101762.42
2018-07-10T07:22:36.172Z,101759.20
2018-07-10T07:25:05.412Z,101768.55
2018-07-10T07:27:34.557Z,101771.63
2018-07-10T07:30:03.878Z,101764.84
2018-07-10T07:32:32.914Z,101764.67
2018-07-10T07:35:02.174Z,101763.84
2018-07-10T07:37:32.114Z,101767.27
2018-07-10T07:40:01.352Z,101760.80
2018-07-10T07:42:30.369Z,101772.03
2018-07-10T07:44:59.601Z,101769.69
2018-07-10T07:47:30.165Z,101764.75
2018-07-10T07:49:59.361Z,101762.89
2018-07-10T07:52:30.813Z,101760.17
2018-07-10T07:55:01.445Z,101759.64
2018-07-10T07:57:30.721Z,101760.17
2018-07-10T07:59:59.883Z,101761.00
2018-07-10T08:02:29.055Z,101750.59
2018-07-10T08:04:58.047Z,101763.39
2018-07-10T08:07:27.899Z,101769.16
2018-07-10T08:09:57.994Z,101763.88
2018-07-10T08:12:29.690Z,101757.95
2018-07-10T08:15:00.549Z,101763.52
2018-07-10T08:17:29.881Z,101762.16
2018-07-10T08:19:59.925Z,101760.47
2018-07-10T08:22:29.182Z,101761.83
2018-07-10T08:24:58.641Z,101756.52
2018-07-10T08:27:28.445Z,101761.95
2018-07-10T08:29:57.918Z,101757.88
2018-07-10T08:32:29.631Z,101759.91
2018-07-10T08:34:58.774Z,101756.48
2018-07-10T08:37:27.994Z,101749.30
2018-07-10T08:39:57.010Z,101752.17
2018-07-10T08:42:26.207Z,101756.25
2018-07-10T08:44:55.465Z,101750.95
2018-07-10T08:47:24.606Z,101750.12
2018-07-10T08:49:54.325Z,101745.67
2018-07-10T08:52:23.643Z,101741.23
2018-07-10T08:54:52.757Z,101740.91
2018-07-10T08:57:22.182Z,101744.11
2018-07-10T08:59:51.319Z,101746.83
2018-07-10T09:02:20.390Z,101741.89
2018-07-10T09:04:49.385Z,101747.00
2018-07-10T09:07:18.506Z,101752.06
2018-07-10T09:09:47.628Z,101760.88
2018-07-10T09:12:16.695Z,101761.86
2018-07-10T09:14:45.622Z,101755.73
2018-07-10T09:17:15.050Z,101756.02
2018-07-10T09:19:44.227Z,101763.81
2018-07-10T09:22:13.990Z,101749.52
2018-07-10T09:24:52.021Z,101742.41
2018-07-10T09:27:22.747Z,101756.11
2018-07-10T09:29:51.794Z,101759.48
2018-07-10T09:32:26.937Z,101754.71
2018-07-10T09:34:58.191Z,101755.37
2018-07-10T09:37:33.343Z,101760.93
2018-07-10T09:40:07.558Z,101761.22
2018-07-10T09:42:41.525Z,101767.67
2018-07-10T09:45:10.576Z,101767.97
2018-07-10T09:47:39.525Z,101775.25
2018-07-10T09:50:08.715Z,101770.97
2018-07-10T09:52:37.698Z,101772.12
2018-07-10T09:55:06.728Z,101769.20
2018-07-10T09:57:35.786Z,101772.90
2018-07-10T10:00:05.009Z,101770.34
2018-07-10T10:02:35.280Z,101771.00
2018-07-10T10:05:05.614Z,101768.41
2018-07-10T10:07:34.686Z,101770.80
2018-07-10T10:10:04.707Z,101774.66
2018-07-10T10:12:34.181Z,101769.23
2018-07-10T10:15:03.337Z,101775.64
2018-07-10T10:17:32.801Z,101760.84
2018-07-10T10:20:01.844Z,101762.20
2018-07-10T10:22:32.497Z,101769.61
2018-07-10T10:25:03.202Z,101769.27
2018-07-10T10:27:32.620Z,101770.26
2018-07-10T10:30:02.154Z,101771.12
2018-07-10T10:32:31.703Z,101770.26
2018-07-10T10:35:01.118Z,101761.12
2018-07-10T10:37:30.410Z,101768.25
2018-07-10T10:40:00.601Z,101761.46
2018-07-10T10:42:29.910Z,101771.49
2018-07-10T10:45:00.662Z,101776.39
2018-07-10T10:47:30.142Z,101769.98
2018-07-10T10:50:00.874Z,101773.19
2018-07-10T10:52:30.149Z,101780.34
2018-07-10T10:54:59.395Z,101778.48
2018-07-10T10:57:30.681Z,101775.77
2018-07-10T10:59:59.771Z,101763.55
2018-07-10T11:02:28.805Z,101764.91
2018-07-10T11:04:58.098Z,101769.84
2018-07-10T11:07:27.769Z,101768.49
2018-07-10T11:09:56.756Z,101776.64
2018-07-10T11:12:27.261Z,101769.84
2018-07-10T11:14:56.294Z,101762.20
2018-07-10T11:17:31.606Z,101756.77
2018-07-10T11:20:13.116Z,101759.12
2018-07-10T11:22:48.016Z,101774.41
2018-07-10T11:25:17.247Z,101774.05
2018-07-10T11:28:04.880Z,101768.98
2018-07-10T11:30:34.108Z,101770.97
2018-07-10T11:33:05.243Z,101766.89
2018-07-10T11:35:35.157Z,101775.90
2018-07-10T11:38:06.917Z,101774.54
2018-07-10T11:40:36.764Z,101770.47
2018-07-10T11:43:07.683Z,101777.75
2018-07-10T11:45:36.859Z,101776.39
2018-07-10T11:48:05.848Z,101779.97
2018-07-10T11:50:35.190Z,101761.54
2018-07-10T11:53:04.128Z,101772.32
2018-07-10T11:55:33.236Z,101776.55
2018-07-10T11:58:02.548Z,101766.06
2018-07-10T12:00:31.757Z,101775.56
2018-07-10T12:03:01.033Z,101771.98
2018-07-10T12:05:35.564Z,101764.83
2018-07-10T12:08:04.685Z,101776.06
2018-07-10T12:10:35.133Z,101775.20
2018-07-10T12:13:04.139Z,101781.12
2018-07-10T12:15:33.176Z,101777.05
2018-07-10T12:18:02.725Z,101775.84
2018-07-10T12:20:40.563Z,101778.56
2018-07-10T12:23:11.224Z,101781.28
2018-07-10T12:25:43.208Z,101784.48
2018-07-10T12:28:13.571Z,101784.12
2018-07-10T12:30:42.702Z,101782.92
2018-07-10T12:33:11.746Z,101779.71
2018-07-10T12:35:40.906Z,101776.63
2018-07-10T12:38:10.053Z,101773.55
2018-07-10T12:40:39.100Z,101770.83
2018-07-10T12:43:08.152Z,101763.22
2018-07-10T12:45:37.277Z,101776.78
2018-07-10T12:48:06.498Z,101775.06
2018-07-10T12:50:35.434Z,101782.34
2018-07-10T12:53:04.682Z,101777.41
2018-07-10T12:55:35.352Z,101782.00
2018-07-10T12:58:04.780Z,101775.71
2018-07-10T13:00:36.328Z,101774.85
2018-07-10T13:03:06.244Z,101777.56
2018-07-10T13:05:45.117Z,101775.84
2018-07-10T13:08:14.351Z,101770.78
2018-07-10T13:10:43.466Z,101775.34
2018-07-10T13:13:12.647Z,101770.78
2018-07-10T13:15:41.700Z,101771.15
2018-07-10T13:18:11.222Z,101777.07
2018-07-10T13:20:40.131Z,101772.63
2018-07-10T13:23:09.400Z,101781.14
2018-07-10T13:25:38.551Z,101773.49
2018-07-10T13:28:07.581Z,101770.78
2018-07-10T13:30:36.738Z,101770.78
2018-07-10T13:33:05.995Z,101767.08
2018-07-10T13:35:36.389Z,101768.44
2018-07-10T13:38:05.657Z,101760.78
2018-07-10T13:40:35.943Z,101767.08
2018-07-10T13:43:05.297Z,101772.50
2018-07-10T13:45:34.267Z,101776.05
2018-07-10T13:48:03.582Z,101781.84
2018-07-10T13:50:34.046Z,101768.44
2018-07-10T13:53:03.928Z,101778.42
2018-07-10T13:55:33.474Z,101776.20
2018-07-10T13:58:17.213Z,101783.86
2018-07-10T14:00:48.224Z,101776.58
2018-07-10T14:03:17.443Z,101768.56
2018-07-10T14:05:46.591Z,101776.20
2018-07-10T14:08:15.763Z,101770.41
2018-07-10T14:10:44.952Z,101768.22
2018-07-10T14:13:14.023Z,101760.58
2018-07-10T14:15:43.313Z,101761.07
2018-07-10T14:18:12.628Z,101755.15
2018-07-10T14:21:12.797Z,101763.29
2018-07-10T14:23:42.001Z,101751.57
2018-07-10T14:26:11.103Z,101750.38
2018-07-10T14:28:40.485Z,101747.12
2018-07-10T14:31:09.392Z,101746.14
2018-07-10T14:33:38.495Z,101745.28
2018-07-10T14:36:07.582Z,101745.28
2018-07-10T14:38:36.985Z,101739.36
2018-07-10T14:41:08.215Z,101743.59
2018-07-10T14:43:41.404Z,101750.22
2018-07-10T14:46:17.501Z,101752.43
2018-07-10T14:48:53.102Z,101738.00
2018-07-10T14:51:37.949Z,101749.35
2018-07-10T14:54:07.210Z,101743.42
2018-07-10T14:56:36.449Z,101743.06
2018-07-10T14:59:05.721Z,101743.06
2018-07-10T15:01:35.086Z,101744.42
2018-07-10T15:04:04.250Z,101744.08
2018-07-10T15:06:33.243Z,101733.23
2018-07-10T15:09:02.756Z,101731.87
2018-07-10T15:11:31.882Z,101725.95
2018-07-10T15:14:03.339Z,101726.44
2018-07-10T15:16:37.761Z,101731.38
2018-07-10T15:19:06.959Z,101735.94
2018-07-10T15:21:36.188Z,101733.72
2018-07-10T15:24:06.943Z,101740.50
2018-07-10T15:26:36.277Z,101739.27
2018-07-10T15:29:05.624Z,101741.16
2018-07-10T15:31:34.781Z,101739.43
2018-07-10T15:34:03.858Z,101748.93
2018-07-10T15:36:33.105Z,101741.28
2018-07-10T15:39:05.089Z,101743.02
2018-07-10T15:41:34.070Z,101741.78
2018-07-10T15:44:03.247Z,101739.59
2018-07-10T15:46:32.291Z,101731.95
2018-07-10T15:49:01.538Z,101728.37
2018-07-10T15:51:31.633Z,101732.93
2018-07-10T15:54:01.011Z,101735.64
2018-07-10T15:56:30.088Z,101737.50
2018-07-10T15:58:59.287Z,101731.58
2018-07-10T16:01:28.309Z,101728.86
2018-07-10T16:03:57.470Z,101725.81
2018-07-10T16:06:27.939Z,101728.00
2018-07-10T16:09:28.054Z,101722.08
2018-07-10T16:11:59.539Z,101722.08
2018-07-10T16:14:29.134Z,101725.81
2018-07-10T16:16:58.943Z,101718.16
2018-07-10T16:19:41.693Z,101718.50
2018-07-10T16:22:19.974Z,101716.31
2018-07-10T16:24:51.901Z,101715.95
2018-07-10T16:27:56.205Z,101718.01
2018-07-10T16:30:26.306Z,101717.14
2018-07-10T16:32:55.575Z,101718.50
2018-07-10T16:35:29.279Z,101716.31
2018-07-10T16:37:59.722Z,101718.88
2018-07-10T16:40:28.767Z,101719.86
2018-07-10T16:42:58.805Z,101719.73
2018-07-10T16:45:33.668Z,101730.09
2018-07-10T16:50:15.036Z,101731.78
2018-07-10T16:52:50.483Z,101738.15
2018-07-10T16:55:19.971Z,101733.38
2018-07-10T16:57:49.575Z,101743.36
2018-07-10T17:00:19.766Z,101746.78
2018-07-10T17:02:49.828Z,101741.36
2018-07-10T17:05:19.003Z,101741.72
2018-07-10T17:07:48.262Z,101747.16
2018-07-10T17:10:17.356Z,101747.86
2018-07-10T17:12:46.483Z,101748.35
2018-07-10T17:15:15.631Z,101744.28
2018-07-10T17:17:44.628Z,101747.36
2018-07-10T17:20:14.770Z,101746.87
2018-07-10T17:22:44.425Z,101745.52
2018-07-10T17:25:14.487Z,101747.73
2018-07-10T17:27:45.935Z,101741.78
2018-07-10T17:30:15.040Z,101742.64
2018-07-10T17:32:44.497Z,101744.86
2018-07-10T17:35:13.788Z,101743.14
2018-07-10T17:37:45.240Z,101748.56
2018-07-10T17:40:14.960Z,101754.52
2018-07-10T17:42:44.773Z,101755.87
2018-07-10T17:45:18.018Z,101753.66
2018-07-10T17:47:47.604Z,101752.30
2018-07-10T17:50:17.369Z,101756.37
2018-07-10T17:52:47.503Z,101752.30
2018-07-10T17:55:16.652Z,101748.72
2018-07-10T17:57:46.792Z,101747.36
2018-07-10T18:00:16.003Z,101743.79
2018-07-10T18:02:45.278Z,101742.92
2018-07-10T18:05:14.481Z,101747.86
2018-07-10T18:07:43.759Z,101744.44
2018-07-10T18:10:12.971Z,101743.08
2018-07-10T18:12:42.241Z,101743.58
2018-07-10T18:15:11.313Z,101736.80
2018-07-10T18:17:40.995Z,101741.72
2018-07-10T18:20:10.358Z,101745.09
2018-07-10T18:22:39.737Z,101745.42
2018-07-10T18:25:08.923Z,101747.31
2018-07-10T18:27:38.786Z,101745.95
2018-07-10T18:30:07.836Z,101750.52
2018-07-10T18:32:36.936Z,101745.09
2018-07-10T18:35:06.515Z,101753.23
2018-07-10T18:37:35.680Z,101752.73
2018-07-10T18:40:04.936Z,101750.15
2018-07-10T18:42:34.029Z,101743.73
2018-07-10T18:45:04.193Z,101749.66
2018-07-10T18:47:33.241Z,101749.16
2018-07-10T18:50:03.079Z,101753.73
2018-07-10T18:52:32.307Z,101756.94
2018-07-10T18:55:02.230Z,101756.44
2018-07-10T18:57:53.754Z,101761.00
2018-07-10T19:00:32.753Z,101756.94
2018-07-10T19:03:13.041Z,101758.78
2018-07-10T19:05:43.592Z,101766.09
2018-07-10T19:08:12.864Z,101758.94
2018-07-10T19:10:42.929Z,101758.94
2018-07-10T19:13:12.837Z,101763.01
2018-07-10T19:15:41.894Z,101766.22
2018-07-10T19:18:11.069Z,101766.22
2018-07-10T19:20:42.386Z,101772.51
2018-07-10T19:23:21.776Z,101774.36
2018-07-10T19:25:52.622Z,101771.31
2018-07-10T19:28:21.938Z,101772.14
2018-07-10T19:31:13.321Z,101768.23
2018-07-10T19:33:45.201Z,101768.23
2018-07-10T19:36:15.487Z,101773.66
2018-07-10T19:38:44.894Z,101767.36
2018-07-10T19:41:14.607Z,101769.22
2018-07-10T19:43:44.225Z,101772.79
2018-07-10T19:46:13.518Z,101764.66
2018-07-10T19:48:47.535Z,101766.99
2018-07-10T19:51:16.662Z,101775.66
2018-07-10T19:53:52.728Z,101771.06
2018-07-10T19:56:22.148Z,101777.52
2018-07-10T19:58:51.410Z,101777.52
2018-07-10T20:01:54.463Z,101778.50
2018-07-10T20:05:31.662Z,101778.16
2018-07-10T20:08:06.364Z,101776.72
2018-07-10T20:10:39.189Z,101779.58
2018-07-10T20:13:11.483Z,101787.84
2018-07-10T20:15:48.546Z,101795.98
2018-07-10T20:18:31.072Z,101794.62
2018-07-10T20:21:10.372Z,101802.43
2018-07-10T20:23:55.642Z,101801.08
2018-07-10T20:26:37.423Z,101806.13
2018-07-10T20:31:20.700Z,101801.72
2018-07-10T20:33:56.963Z,101801.26
2018-07-10T20:36:26.649Z,101804.28
2018-07-10T20:38:57.687Z,101804.28
2018-07-10T20:41:46.989Z,101810.05
2018-07-10T20:44:20.075Z,101801.91
2018-07-10T20:46:58.716Z,101808.35
2018-07-10T20:49:51.470Z,101810.05
2018-07-10T20:52:54.745Z,101808.35
2018-07-10T20:55:25.828Z,101803.42
2018-07-10T20:58:00.201Z,101812.51
2018-07-10T21:00:36.930Z,101810.28
2018-07-10T21:03:19.406Z,101819.69
2018-07-10T21:05:49.183Z,101819.29
2018-07-10T21:08:28.898Z,101819.29
2018-07-10T21:11:01.938Z,101821.55
2018-07-10T21:13:41.891Z,101822.89
2018-07-10T21:17:15.908Z,101821.13
2018-07-10T21:22:03.759Z,101817.22
2018-07-10T21:24:41.922Z,101821.34
2018-07-10T21:27:13.033Z,101829.11
2018-07-10T21:29:52.306Z,101825.91
2018-07-10T21:32:47.903Z,101825.91
2018-07-10T21:35:17.745Z,101822.21
2018-07-10T21:40:03.965Z,101823.08
2018-07-10T21:42:41.216Z,101818.42
2018-07-10T21:45:22.713Z,101818.57
2018-07-10T21:47:57.765Z,101815.33
2018-07-10T21:50:35.320Z,101821.50
2018-07-10T21:53:05.579Z,101824.22
2018-07-10T21:55:34.896Z,101822.70
2018-07-10T21:58:03.842Z,101823.57
2018-07-10T22:00:43.888Z,101823.94
2018-07-10T22:03:13.323Z,101826.13
2018-07-10T22:05:42.786Z,101823.94
2018-07-10T22:08:11.793Z,101826.98
2018-07-10T22:10:40.765Z,101829.70
2018-07-10T22:13:10.910Z,101827.86
2018-07-10T22:15:39.886Z,101827.86
2018-07-10T22:18:09.198Z,101832.30
2018-07-10T22:20:38.266Z,101835.50
2018-07-10T22:23:07.238Z,101828.23
2018-07-10T22:25:36.472Z,101826.87
2018-07-10T22:28:05.620Z,101825.52
2018-07-10T22:31:40.671Z,101825.14
2018-07-10T22:34:09.737Z,101828.01
2018-07-10T22:36:38.879Z,101825.41
2018-07-10T22:39:08.110Z,101823.20
2018-07-10T22:41:39.006Z,101822.86
2018-07-10T22:44:08.345Z,101821.84
2018-07-10T22:46:38.884Z,101819.62
2018-07-10T22:49:11.378Z,101823.20
2018-07-10T22:51:40.468Z,101816.42
2018-07-10T22:54:09.671Z,101819.99
2018-07-10T22:56:38.771Z,101820.98
2018-07-10T22:59:07.961Z,101813.37
2018-07-10T23:01:38.054Z,101816.57
2018-07-10T23:04:07.120Z,101816.57
2018-07-10T23:06:37.119Z,101814.34
2018-07-10T23:09:06.500Z,101816.69
2018-07-10T23:11:35.972Z,101815.33
2018-07-10T23:14:05.031Z,101813.15
2018-07-10T23:16:39.708Z,101821.28
2018-07-10T23:19:09.118Z,101813.77
2018-07-10T23:21:39.631Z,101813.77
2018-07-10T23:24:08.782Z,101811.05
2018-07-10T23:26:39.472Z,101814.41
2018-07-10T23:29:08.681Z,101803.94
2018-07-10T23:31:37.934Z,101804.42
2018-07-10T23:34:12.759Z,101805.78
2018-07-10T23:36:41.811Z,101799.98
2018-07-10T23:39:12.063Z,101806.77
2018-07-10T23:41:50.382Z,101799.98
2018-07-10T23:44:19.908Z,101800.51
2018-07-10T23:46:58.607Z,101797.42
2018-07-10T23:49:28.137Z,101794.22
2018-07-10T23:52:08.122Z,101791.14
2018-07-10T23:54:37.385Z,101797.42
2018-07-10T23:57:06.356Z,101803.34
2018-07-10T23:59:35.364Z,101800.14
